sensor_id;sensor_type;location;lat;lon;timestamp;P1;durP1;ratioP1;P2;durP2;ratioP2
11090;SDS011;5599;52.210;21.046;2022-09-09T00:01:43;8.13;;;5.97;;
11090;SDS011;5599;52.210;21.046;2022-09-09T00:04:23;7.50;;;6.13;;
11090;SDS011;5599;52.210;21.046;2022-09-09T00:06:58;8.80;;;6.20;;
11090;SDS011;5599;52.210;21.046;2022-09-09T00:09:35;7.70;;;5.97;;
11090;SDS011;5599;52.210;21.046;2022-09-09T00:12:12;8.10;;;6.43;;
11090;SDS011;5599;52.210;21.046;2022-09-09T00:14:47;9.33;;;6.33;;
11090;SDS011;5599;52.210;21.046;2022-09-09T00:17:24;8.07;;;6.90;;
11090;SDS011;5599;52.210;21.046;2022-09-09T00:20:03;9.27;;;6.33;;
11090;SDS011;5599;52.210;21.046;2022-09-09T00:22:40;7.77;;;6.40;;
11090;SDS011;5599;52.210;21.046;2022-09-09T00:25:19;11.13;;;6.10;;
11090;SDS011;5599;52.210;21.046;2022-09-09T00:27:57;9.37;;;6.90;;
11090;SDS011;5599;52.210;21.046;2022-09-09T00:30:27;8.37;;;6.37;;
11090;SDS011;5599;52.210;21.046;2022-09-09T00:33:01;10.27;;;6.90;;
11090;SDS011;5599;52.210;21.046;2022-09-09T00:35:43;8.83;;;7.23;;
11090;SDS011;5599;52.210;21.046;2022-09-09T00:38:15;10.43;;;7.03;;
11090;SDS011;5599;52.210;21.046;2022-09-09T00:40:50;9.80;;;6.60;;
11090;SDS011;5599;52.210;21.046;2022-09-09T00:43:25;8.83;;;7.00;;
11090;SDS011;5599;52.210;21.046;2022-09-09T00:46:05;8.00;;;6.63;;
11090;SDS011;5599;52.210;21.046;2022-09-09T00:49:00;11.13;;;7.30;;
11090;SDS011;5599;52.210;21.046;2022-09-09T00:51:41;9.00;;;6.63;;
11090;SDS011;5599;52.210;21.046;2022-09-09T00:54:28;9.97;;;6.83;;
11090;SDS011;5599;52.210;21.046;2022-09-09T00:57:10;10.27;;;7.27;;
11090;SDS011;5599;52.210;21.046;2022-09-09T00:59:46;8.20;;;7.23;;
11090;SDS011;5599;52.210;21.046;2022-09-09T01:02:22;9.50;;;7.03;;
11090;SDS011;5599;52.210;21.046;2022-09-09T01:04:58;13.47;;;7.53;;
11090;SDS011;5599;52.210;21.046;2022-09-09T01:07:36;9.20;;;7.50;;
11090;SDS011;5599;52.210;21.046;2022-09-09T01:10:07;13.77;;;7.77;;
11090;SDS011;5599;52.210;21.046;2022-09-09T01:12:44;10.63;;;7.93;;
11090;SDS011;5599;52.210;21.046;2022-09-09T01:15:21;11.10;;;7.43;;
11090;SDS011;5599;52.210;21.046;2022-09-09T01:17:58;9.10;;;7.60;;
11090;SDS011;5599;52.210;21.046;2022-09-09T01:20:36;10.07;;;6.70;;
11090;SDS011;5599;52.210;21.046;2022-09-09T01:23:19;8.27;;;7.33;;
11090;SDS011;5599;52.210;21.046;2022-09-09T01:26:19;8.87;;;7.47;;
11090;SDS011;5599;52.210;21.046;2022-09-09T01:28:56;12.67;;;7.53;;
11090;SDS011;5599;52.210;21.046;2022-09-09T01:31:32;11.57;;;7.60;;
11090;SDS011;5599;52.210;21.046;2022-09-09T01:34:10;12.43;;;7.63;;
11090;SDS011;5599;52.210;21.046;2022-09-09T01:36:42;9.47;;;8.13;;
11090;SDS011;5599;52.210;21.046;2022-09-09T01:39:18;11.20;;;7.17;;
11090;SDS011;5599;52.210;21.046;2022-09-09T01:41:58;9.60;;;7.37;;
11090;SDS011;5599;52.210;21.046;2022-09-09T01:44:28;12.07;;;8.07;;
11090;SDS011;5599;52.210;21.046;2022-09-09T01:47:01;13.30;;;8.37;;
11090;SDS011;5599;52.210;21.046;2022-09-09T01:49:31;10.97;;;8.20;;
11090;SDS011;5599;52.210;21.046;2022-09-09T01:52:09;10.00;;;7.17;;
11090;SDS011;5599;52.210;21.046;2022-09-09T01:54:38;9.63;;;7.80;;
11090;SDS011;5599;52.210;21.046;2022-09-09T01:57:16;9.10;;;8.10;;
11090;SDS011;5599;52.210;21.046;2022-09-09T01:59:55;11.73;;;8.37;;
11090;SDS011;5599;52.210;21.046;2022-09-09T02:02:44;10.73;;;8.00;;
11090;SDS011;5599;52.210;21.046;2022-09-09T02:05:27;11.53;;;8.27;;
11090;SDS011;5599;52.210;21.046;2022-09-09T02:08:06;14.97;;;8.70;;
11090;SDS011;5599;52.210;21.046;2022-09-09T02:10:50;10.33;;;8.13;;
11090;SDS011;5599;52.210;21.046;2022-09-09T02:13:36;10.20;;;8.17;;
11090;SDS011;5599;52.210;21.046;2022-09-09T02:16:12;13.93;;;8.57;;
11090;SDS011;5599;52.210;21.046;2022-09-09T02:18:47;11.63;;;8.43;;
11090;SDS011;5599;52.210;21.046;2022-09-09T02:21:26;8.97;;;8.03;;
11090;SDS011;5599;52.210;21.046;2022-09-09T02:23:58;9.43;;;7.50;;
11090;SDS011;5599;52.210;21.046;2022-09-09T02:26:37;11.50;;;8.50;;
11090;SDS011;5599;52.210;21.046;2022-09-09T02:29:14;11.30;;;8.03;;
11090;SDS011;5599;52.210;21.046;2022-09-09T02:31:47;9.33;;;8.03;;
11090;SDS011;5599;52.210;21.046;2022-09-09T02:34:27;11.03;;;8.97;;
11090;SDS011;5599;52.210;21.046;2022-09-09T02:37:00;12.07;;;8.60;;
11090;SDS011;5599;52.210;21.046;2022-09-09T02:39:31;10.67;;;9.13;;
11090;SDS011;5599;52.210;21.046;2022-09-09T02:42:02;11.47;;;9.00;;
11090;SDS011;5599;52.210;21.046;2022-09-09T02:44:34;10.90;;;8.93;;
11090;SDS011;5599;52.210;21.046;2022-09-09T02:47:16;12.57;;;8.87;;
11090;SDS011;5599;52.210;21.046;2022-09-09T02:50:01;10.07;;;8.27;;
11090;SDS011;5599;52.210;21.046;2022-09-09T02:52:40;11.57;;;8.83;;
11090;SDS011;5599;52.210;21.046;2022-09-09T02:55:17;11.43;;;8.57;;
11090;SDS011;5599;52.210;21.046;2022-09-09T02:57:54;13.20;;;9.03;;
11090;SDS011;5599;52.210;21.046;2022-09-09T03:00:29;11.47;;;8.97;;
11090;SDS011;5599;52.210;21.046;2022-09-09T03:03:00;14.23;;;8.93;;
11090;SDS011;5599;52.210;21.046;2022-09-09T03:05:32;12.10;;;8.70;;
11090;SDS011;5599;52.210;21.046;2022-09-09T03:08:01;9.40;;;8.40;;
11090;SDS011;5599;52.210;21.046;2022-09-09T03:10:31;11.33;;;9.50;;
11090;SDS011;5599;52.210;21.046;2022-09-09T03:13:00;11.23;;;9.23;;
11090;SDS011;5599;52.210;21.046;2022-09-09T03:15:36;10.27;;;8.50;;
11090;SDS011;5599;52.210;21.046;2022-09-09T03:18:08;14.27;;;9.20;;
11090;SDS011;5599;52.210;21.046;2022-09-09T03:20:38;11.70;;;9.27;;
11090;SDS011;5599;52.210;21.046;2022-09-09T03:23:10;13.57;;;9.07;;
11090;SDS011;5599;52.210;21.046;2022-09-09T03:25:46;13.17;;;9.53;;
11090;SDS011;5599;52.210;21.046;2022-09-09T03:28:19;10.50;;;9.40;;
11090;SDS011;5599;52.210;21.046;2022-09-09T03:30:52;12.67;;;9.80;;
11090;SDS011;5599;52.210;21.046;2022-09-09T03:33:26;9.77;;;8.77;;
11090;SDS011;5599;52.210;21.046;2022-09-09T03:35:57;12.87;;;10.13;;
11090;SDS011;5599;52.210;21.046;2022-09-09T03:38:28;13.07;;;9.93;;
11090;SDS011;5599;52.210;21.046;2022-09-09T03:41:00;12.60;;;9.20;;
11090;SDS011;5599;52.210;21.046;2022-09-09T03:43:31;11.57;;;9.03;;
11090;SDS011;5599;52.210;21.046;2022-09-09T03:46:02;13.77;;;9.67;;
11090;SDS011;5599;52.210;21.046;2022-09-09T03:48:32;11.10;;;8.70;;
11090;SDS011;5599;52.210;21.046;2022-09-09T03:51:03;9.80;;;8.80;;
11090;SDS011;5599;52.210;21.046;2022-09-09T03:53:34;9.93;;;8.93;;
11090;SDS011;5599;52.210;21.046;2022-09-09T03:56:06;11.57;;;9.23;;
11090;SDS011;5599;52.210;21.046;2022-09-09T03:58:37;10.03;;;8.77;;
11090;SDS011;5599;52.210;21.046;2022-09-09T04:01:11;11.47;;;8.00;;
11090;SDS011;5599;52.210;21.046;2022-09-09T04:03:43;11.93;;;9.07;;
11090;SDS011;5599;52.210;21.046;2022-09-09T04:06:13;9.20;;;8.20;;
11090;SDS011;5599;52.210;21.046;2022-09-09T04:08:46;8.77;;;7.90;;
11090;SDS011;5599;52.210;21.046;2022-09-09T04:11:18;10.03;;;7.80;;
11090;SDS011;5599;52.210;21.046;2022-09-09T04:13:51;9.67;;;8.10;;
11090;SDS011;5599;52.210;21.046;2022-09-09T04:16:22;8.97;;;7.53;;
11090;SDS011;5599;52.210;21.046;2022-09-09T04:18:52;8.60;;;7.80;;
11090;SDS011;5599;52.210;21.046;2022-09-09T04:21:23;10.67;;;7.97;;
11090;SDS011;5599;52.210;21.046;2022-09-09T04:23:53;9.40;;;7.60;;
11090;SDS011;5599;52.210;21.046;2022-09-09T04:26:24;8.63;;;7.83;;
11090;SDS011;5599;52.210;21.046;2022-09-09T04:28:54;9.07;;;7.57;;
11090;SDS011;5599;52.210;21.046;2022-09-09T04:31:25;11.73;;;8.23;;
11090;SDS011;5599;52.210;21.046;2022-09-09T04:33:56;7.43;;;6.63;;
11090;SDS011;5599;52.210;21.046;2022-09-09T04:36:26;9.60;;;7.43;;
11090;SDS011;5599;52.210;21.046;2022-09-09T04:38:59;8.43;;;7.30;;
11090;SDS011;5599;52.210;21.046;2022-09-09T04:41:29;9.40;;;7.30;;
11090;SDS011;5599;52.210;21.046;2022-09-09T04:44:00;8.10;;;7.03;;
11090;SDS011;5599;52.210;21.046;2022-09-09T04:46:33;9.63;;;7.37;;
11090;SDS011;5599;52.210;21.046;2022-09-09T04:49:03;8.20;;;6.67;;
11090;SDS011;5599;52.210;21.046;2022-09-09T04:51:36;7.93;;;6.97;;
11090;SDS011;5599;52.210;21.046;2022-09-09T04:54:06;8.50;;;7.20;;
11090;SDS011;5599;52.210;21.046;2022-09-09T04:56:38;8.70;;;6.70;;
11090;SDS011;5599;52.210;21.046;2022-09-09T04:59:10;8.53;;;6.53;;
11090;SDS011;5599;52.210;21.046;2022-09-09T05:01:45;8.30;;;6.43;;
11090;SDS011;5599;52.210;21.046;2022-09-09T05:04:15;7.53;;;6.83;;
11090;SDS011;5599;52.210;21.046;2022-09-09T05:06:47;7.23;;;6.53;;
11090;SDS011;5599;52.210;21.046;2022-09-09T05:09:17;6.87;;;6.13;;
11090;SDS011;5599;52.210;21.046;2022-09-09T05:11:46;7.07;;;6.37;;
11090;SDS011;5599;52.210;21.046;2022-09-09T05:14:30;9.07;;;6.57;;
11090;SDS011;5599;52.210;21.046;2022-09-09T05:17:02;7.03;;;6.43;;
11090;SDS011;5599;52.210;21.046;2022-09-09T05:19:32;6.97;;;6.27;;
11090;SDS011;5599;52.210;21.046;2022-09-09T05:22:02;8.57;;;6.30;;
11090;SDS011;5599;52.210;21.046;2022-09-09T05:24:40;6.47;;;5.87;;
11090;SDS011;5599;52.210;21.046;2022-09-09T05:27:12;5.93;;;5.30;;
11090;SDS011;5599;52.210;21.046;2022-09-09T05:29:42;6.43;;;5.83;;
11090;SDS011;5599;52.210;21.046;2022-09-09T05:32:14;6.00;;;5.43;;
11090;SDS011;5599;52.210;21.046;2022-09-09T05:34:47;7.70;;;5.50;;
11090;SDS011;5599;52.210;21.046;2022-09-09T05:37:17;5.57;;;5.10;;
11090;SDS011;5599;52.210;21.046;2022-09-09T05:39:48;6.63;;;5.93;;
11090;SDS011;5599;52.210;21.046;2022-09-09T05:42:18;7.90;;;6.03;;
11090;SDS011;5599;52.210;21.046;2022-09-09T05:44:47;6.80;;;5.67;;
11090;SDS011;5599;52.210;21.046;2022-09-09T05:47:19;6.37;;;5.77;;
11090;SDS011;5599;52.210;21.046;2022-09-09T05:49:49;8.43;;;6.37;;
11090;SDS011;5599;52.210;21.046;2022-09-09T05:52:19;7.03;;;4.90;;
11090;SDS011;5599;52.210;21.046;2022-09-09T05:54:48;6.03;;;5.40;;
11090;SDS011;5599;52.210;21.046;2022-09-09T05:57:18;5.67;;;5.10;;
11090;SDS011;5599;52.210;21.046;2022-09-09T05:59:49;7.37;;;5.13;;
11090;SDS011;5599;52.210;21.046;2022-09-09T06:02:21;6.00;;;5.33;;
11090;SDS011;5599;52.210;21.046;2022-09-09T06:04:51;6.33;;;5.73;;
11090;SDS011;5599;52.210;21.046;2022-09-09T06:07:26;6.87;;;5.57;;
11090;SDS011;5599;52.210;21.046;2022-09-09T06:09:55;6.57;;;5.10;;
11090;SDS011;5599;52.210;21.046;2022-09-09T06:12:26;6.43;;;5.83;;
11090;SDS011;5599;52.210;21.046;2022-09-09T06:14:56;6.13;;;5.20;;
11090;SDS011;5599;52.210;21.046;2022-09-09T06:17:27;6.27;;;5.60;;
11090;SDS011;5599;52.210;21.046;2022-09-09T06:19:57;6.30;;;5.70;;
11090;SDS011;5599;52.210;21.046;2022-09-09T06:22:27;7.17;;;5.50;;
11090;SDS011;5599;52.210;21.046;2022-09-09T06:24:57;6.75;;;5.78;;
11090;SDS011;5599;52.210;21.046;2022-09-09T06:27:28;7.60;;;5.67;;
11090;SDS011;5599;52.210;21.046;2022-09-09T06:29:59;6.43;;;5.30;;
11090;SDS011;5599;52.210;21.046;2022-09-09T06:32:32;7.37;;;6.00;;
11090;SDS011;5599;52.210;21.046;2022-09-09T06:35:03;6.00;;;5.50;;
11090;SDS011;5599;52.210;21.046;2022-09-09T06:37:34;7.43;;;5.70;;
11090;SDS011;5599;52.210;21.046;2022-09-09T06:40:04;6.90;;;6.23;;
11090;SDS011;5599;52.210;21.046;2022-09-09T06:42:35;8.77;;;5.97;;
11090;SDS011;5599;52.210;21.046;2022-09-09T06:45:21;7.80;;;7.07;;
11090;SDS011;5599;52.210;21.046;2022-09-09T06:47:56;8.07;;;6.83;;
11090;SDS011;5599;52.210;21.046;2022-09-09T06:50:26;7.07;;;6.37;;
11090;SDS011;5599;52.210;21.046;2022-09-09T06:52:56;6.90;;;6.20;;
11090;SDS011;5599;52.210;21.046;2022-09-09T06:55:26;7.97;;;6.70;;
11090;SDS011;5599;52.210;21.046;2022-09-09T06:57:56;8.87;;;7.03;;
11090;SDS011;5599;52.210;21.046;2022-09-09T07:00:26;7.20;;;6.50;;
11090;SDS011;5599;52.210;21.046;2022-09-09T07:02:57;7.67;;;6.97;;
11090;SDS011;5599;52.210;21.046;2022-09-09T07:05:28;7.67;;;6.87;;
11090;SDS011;5599;52.210;21.046;2022-09-09T07:07:58;8.07;;;7.27;;
11090;SDS011;5599;52.210;21.046;2022-09-09T07:10:29;9.33;;;7.47;;
11090;SDS011;5599;52.210;21.046;2022-09-09T07:13:00;7.97;;;7.17;;
11090;SDS011;5599;52.210;21.046;2022-09-09T07:15:30;7.77;;;7.07;;
11090;SDS011;5599;52.210;21.046;2022-09-09T07:18:02;8.13;;;7.37;;
11090;SDS011;5599;52.210;21.046;2022-09-09T07:20:32;9.77;;;7.73;;
11090;SDS011;5599;52.210;21.046;2022-09-09T07:23:02;8.10;;;7.30;;
11090;SDS011;5599;52.210;21.046;2022-09-09T07:25:32;8.77;;;7.87;;
11090;SDS011;5599;52.210;21.046;2022-09-09T07:28:02;8.37;;;7.57;;
11090;SDS011;5599;52.210;21.046;2022-09-09T07:30:32;12.70;;;8.87;;
11090;SDS011;5599;52.210;21.046;2022-09-09T07:33:04;9.77;;;8.77;;
11090;SDS011;5599;52.210;21.046;2022-09-09T07:35:34;8.73;;;7.73;;
11090;SDS011;5599;52.210;21.046;2022-09-09T07:38:04;11.13;;;8.80;;
11090;SDS011;5599;52.210;21.046;2022-09-09T07:40:34;9.37;;;8.47;;
11090;SDS011;5599;52.210;21.046;2022-09-09T07:43:04;8.93;;;8.03;;
11090;SDS011;5599;52.210;21.046;2022-09-09T07:45:34;9.27;;;8.27;;
11090;SDS011;5599;52.210;21.046;2022-09-09T07:48:05;9.17;;;7.77;;
11090;SDS011;5599;52.210;21.046;2022-09-09T07:50:36;9.07;;;8.23;;
11090;SDS011;5599;52.210;21.046;2022-09-09T07:53:07;11.83;;;8.60;;
11090;SDS011;5599;52.210;21.046;2022-09-09T07:55:38;12.50;;;9.30;;
11090;SDS011;5599;52.210;21.046;2022-09-09T07:58:08;11.17;;;8.27;;
11090;SDS011;5599;52.210;21.046;2022-09-09T08:00:38;10.37;;;8.40;;
11090;SDS011;5599;52.210;21.046;2022-09-09T08:03:13;9.57;;;8.37;;
11090;SDS011;5599;52.210;21.046;2022-09-09T08:05:43;10.57;;;9.30;;
11090;SDS011;5599;52.210;21.046;2022-09-09T08:08:12;9.93;;;8.93;;
11090;SDS011;5599;52.210;21.046;2022-09-09T08:10:42;9.73;;;8.73;;
11090;SDS011;5599;52.210;21.046;2022-09-09T08:13:12;10.30;;;9.20;;
11090;SDS011;5599;52.210;21.046;2022-09-09T08:15:46;11.67;;;8.93;;
11090;SDS011;5599;52.210;21.046;2022-09-09T08:18:20;9.60;;;8.40;;
11090;SDS011;5599;52.210;21.046;2022-09-09T08:20:51;9.00;;;8.10;;
11090;SDS011;5599;52.210;21.046;2022-09-09T08:23:21;9.20;;;8.30;;
11090;SDS011;5599;52.210;21.046;2022-09-09T08:25:50;14.07;;;9.13;;
11090;SDS011;5599;52.210;21.046;2022-09-09T08:28:20;9.73;;;8.60;;
11090;SDS011;5599;52.210;21.046;2022-09-09T08:30:50;11.27;;;9.33;;
11090;SDS011;5599;52.210;21.046;2022-09-09T08:33:22;10.03;;;8.93;;
11090;SDS011;5599;52.210;21.046;2022-09-09T08:35:52;10.13;;;9.03;;
11090;SDS011;5599;52.210;21.046;2022-09-09T08:38:22;10.57;;;9.47;;
11090;SDS011;5599;52.210;21.046;2022-09-09T08:40:52;14.33;;;11.00;;
11090;SDS011;5599;52.210;21.046;2022-09-09T08:43:28;12.33;;;11.03;;
11090;SDS011;5599;52.210;21.046;2022-09-09T08:46:02;11.83;;;10.63;;
11090;SDS011;5599;52.210;21.046;2022-09-09T08:48:43;15.37;;;13.20;;
11090;SDS011;5599;52.210;21.046;2022-09-09T08:51:20;12.57;;;11.13;;
11090;SDS011;5599;52.210;21.046;2022-09-09T08:53:52;11.63;;;10.43;;
11090;SDS011;5599;52.210;21.046;2022-09-09T08:56:26;14.37;;;10.87;;
11090;SDS011;5599;52.210;21.046;2022-09-09T08:59:00;11.27;;;10.07;;
11090;SDS011;5599;52.210;21.046;2022-09-09T09:01:42;13.77;;;11.30;;
11090;SDS011;5599;52.210;21.046;2022-09-09T09:04:36;13.57;;;10.67;;
11090;SDS011;5599;52.210;21.046;2022-09-09T09:07:18;13.57;;;10.27;;
11090;SDS011;5599;52.210;21.046;2022-09-09T09:10:02;15.63;;;11.00;;
11090;SDS011;5599;52.210;21.046;2022-09-09T09:13:00;14.37;;;11.10;;
11090;SDS011;5599;52.210;21.046;2022-09-09T09:15:33;14.03;;;11.73;;
11090;SDS011;5599;52.210;21.046;2022-09-09T09:18:08;13.10;;;11.40;;
11090;SDS011;5599;52.210;21.046;2022-09-09T09:20:46;13.37;;;11.77;;
11090;SDS011;5599;52.210;21.046;2022-09-09T09:23:23;14.37;;;12.80;;
11090;SDS011;5599;52.210;21.046;2022-09-09T09:25:58;13.27;;;11.73;;
11090;SDS011;5599;52.210;21.046;2022-09-09T09:28:29;12.87;;;11.53;;
11090;SDS011;5599;52.210;21.046;2022-09-09T09:31:09;13.57;;;12.20;;
11090;SDS011;5599;52.210;21.046;2022-09-09T09:33:46;14.73;;;12.53;;
11090;SDS011;5599;52.210;21.046;2022-09-09T09:36:21;14.13;;;11.83;;
11090;SDS011;5599;52.210;21.046;2022-09-09T09:39:02;13.37;;;11.97;;
11090;SDS011;5599;52.210;21.046;2022-09-09T09:41:56;17.80;;;13.97;;
11090;SDS011;5599;52.210;21.046;2022-09-09T09:44:32;14.20;;;12.13;;
11090;SDS011;5599;52.210;21.046;2022-09-09T09:47:13;15.10;;;12.13;;
11090;SDS011;5599;52.210;21.046;2022-09-09T09:49:54;13.43;;;12.13;;
11090;SDS011;5599;52.210;21.046;2022-09-09T09:52:30;16.10;;;13.10;;
11090;SDS011;5599;52.210;21.046;2022-09-09T09:55:04;16.30;;;13.77;;
11090;SDS011;5599;52.210;21.046;2022-09-09T09:57:43;16.70;;;13.97;;
11090;SDS011;5599;52.210;21.046;2022-09-09T10:00:14;16.47;;;14.60;;
11090;SDS011;5599;52.210;21.046;2022-09-09T10:02:52;15.07;;;13.47;;
11090;SDS011;5599;52.210;21.046;2022-09-09T10:05:28;14.53;;;13.00;;
11090;SDS011;5599;52.210;21.046;2022-09-09T10:08:12;16.93;;;13.60;;
11090;SDS011;5599;52.210;21.046;2022-09-09T10:10:51;16.67;;;15.00;;
11090;SDS011;5599;52.210;21.046;2022-09-09T10:13:39;16.97;;;14.77;;
11090;SDS011;5599;52.210;21.046;2022-09-09T10:16:21;16.77;;;14.80;;
11090;SDS011;5599;52.210;21.046;2022-09-09T10:19:00;16.17;;;14.53;;
11090;SDS011;5599;52.210;21.046;2022-09-09T10:21:49;19.63;;;15.63;;
11090;SDS011;5599;52.210;21.046;2022-09-09T10:24:48;17.67;;;15.37;;
11090;SDS011;5599;52.210;21.046;2022-09-09T10:27:43;22.90;;;16.93;;
11090;SDS011;5599;52.210;21.046;2022-09-09T10:30:27;16.37;;;14.83;;
11090;SDS011;5599;52.210;21.046;2022-09-09T10:33:04;18.27;;;15.40;;
11090;SDS011;5599;52.210;21.046;2022-09-09T10:35:39;18.97;;;16.40;;
11090;SDS011;5599;52.210;21.046;2022-09-09T10:38:19;16.73;;;14.77;;
11090;SDS011;5599;52.210;21.046;2022-09-09T10:41:09;18.43;;;14.67;;
11090;SDS011;5599;52.210;21.046;2022-09-09T10:46:37;18.33;;;16.33;;
11090;SDS011;5599;52.210;21.046;2022-09-09T10:49:21;18.27;;;16.40;;
11090;SDS011;5599;52.210;21.046;2022-09-09T10:52:02;34.63;;;24.57;;
11090;SDS011;5599;52.210;21.046;2022-09-09T10:54:43;26.27;;;22.90;;
11090;SDS011;5599;52.210;21.046;2022-09-09T10:57:25;24.77;;;22.37;;
11090;SDS011;5599;52.210;21.046;2022-09-09T11:00:01;21.37;;;19.07;;
11090;SDS011;5599;52.210;21.046;2022-09-09T11:02:33;21.53;;;19.27;;
11090;SDS011;5599;52.210;21.046;2022-09-09T11:05:05;21.20;;;18.20;;
11090;SDS011;5599;52.210;21.046;2022-09-09T11:07:39;21.20;;;17.67;;
11090;SDS011;5599;52.210;21.046;2022-09-09T11:10:16;20.47;;;18.27;;
11090;SDS011;5599;52.210;21.046;2022-09-09T11:12:55;21.73;;;19.40;;
11090;SDS011;5599;52.210;21.046;2022-09-09T11:15:31;22.17;;;17.63;;
11090;SDS011;5599;52.210;21.046;2022-09-09T11:18:09;22.17;;;19.23;;
11090;SDS011;5599;52.210;21.046;2022-09-09T11:20:45;23.43;;;19.17;;
11090;SDS011;5599;52.210;21.046;2022-09-09T11:23:18;21.33;;;18.90;;
11090;SDS011;5599;52.210;21.046;2022-09-09T11:25:55;23.00;;;20.43;;
11090;SDS011;5599;52.210;21.046;2022-09-09T11:28:35;22.50;;;18.97;;
11090;SDS011;5599;52.210;21.046;2022-09-09T11:31:29;21.67;;;18.90;;
11090;SDS011;5599;52.210;21.046;2022-09-09T11:34:17;23.53;;;20.13;;
11090;SDS011;5599;52.210;21.046;2022-09-09T11:40:09;22.03;;;19.13;;
11090;SDS011;5599;52.210;21.046;2022-09-09T11:42:46;21.13;;;18.73;;
11090;SDS011;5599;52.210;21.046;2022-09-09T11:45:22;23.67;;;19.67;;
11090;SDS011;5599;52.210;21.046;2022-09-09T11:47:56;25.60;;;21.07;;
11090;SDS011;5599;52.210;21.046;2022-09-09T11:50:28;25.33;;;20.57;;
11090;SDS011;5599;52.210;21.046;2022-09-09T11:53:05;24.27;;;20.17;;
11090;SDS011;5599;52.210;21.046;2022-09-09T11:56:01;24.87;;;19.97;;
11090;SDS011;5599;52.210;21.046;2022-09-09T11:58:35;23.13;;;20.33;;
11090;SDS011;5599;52.210;21.046;2022-09-09T12:01:29;27.37;;;20.97;;
11090;SDS011;5599;52.210;21.046;2022-09-09T12:04:11;24.33;;;20.70;;
11090;SDS011;5599;52.210;21.046;2022-09-09T12:06:50;26.00;;;21.47;;
11090;SDS011;5599;52.210;21.046;2022-09-09T12:09:23;23.57;;;21.13;;
11090;SDS011;5599;52.210;21.046;2022-09-09T12:12:05;27.93;;;21.53;;
11090;SDS011;5599;52.210;21.046;2022-09-09T12:14:55;29.03;;;21.90;;
11090;SDS011;5599;52.210;21.046;2022-09-09T12:17:31;27.53;;;21.67;;
11090;SDS011;5599;52.210;21.046;2022-09-09T12:20:10;26.53;;;22.17;;
11090;SDS011;5599;52.210;21.046;2022-09-09T12:25:48;29.53;;;23.13;;
11090;SDS011;5599;52.210;21.046;2022-09-09T12:28:33;32.20;;;23.93;;
11090;SDS011;5599;52.210;21.046;2022-09-09T12:31:15;31.07;;;24.53;;
11090;SDS011;5599;52.210;21.046;2022-09-09T12:33:51;28.07;;;23.43;;
11090;SDS011;5599;52.210;21.046;2022-09-09T12:36:22;26.40;;;23.13;;
11090;SDS011;5599;52.210;21.046;2022-09-09T12:38:57;27.57;;;22.33;;
11090;SDS011;5599;52.210;21.046;2022-09-09T12:41:39;29.03;;;23.27;;
11090;SDS011;5599;52.210;21.046;2022-09-09T12:44:09;26.20;;;23.30;;
11090;SDS011;5599;52.210;21.046;2022-09-09T12:46:39;29.67;;;24.73;;
11090;SDS011;5599;52.210;21.046;2022-09-09T12:49:23;26.77;;;23.07;;
11090;SDS011;5599;52.210;21.046;2022-09-09T12:52:01;30.03;;;25.73;;
11090;SDS011;5599;52.210;21.046;2022-09-09T12:54:33;29.80;;;25.33;;
11090;SDS011;5599;52.210;21.046;2022-09-09T12:57:09;29.07;;;24.70;;
11090;SDS011;5599;52.210;21.046;2022-09-09T13:00:11;32.43;;;24.07;;
11090;SDS011;5599;52.210;21.046;2022-09-09T13:02:49;30.27;;;23.83;;
11090;SDS011;5599;52.210;21.046;2022-09-09T13:05:22;30.33;;;25.43;;
11090;SDS011;5599;52.210;21.046;2022-09-09T13:08:00;30.83;;;25.00;;
11090;SDS011;5599;52.210;21.046;2022-09-09T13:10:31;30.97;;;25.93;;
11090;SDS011;5599;52.210;21.046;2022-09-09T13:13:21;33.03;;;25.27;;
11090;SDS011;5599;52.210;21.046;2022-09-09T13:15:52;30.47;;;25.47;;
11090;SDS011;5599;52.210;21.046;2022-09-09T13:18:25;32.93;;;25.93;;
11090;SDS011;5599;52.210;21.046;2022-09-09T13:20:59;31.20;;;24.77;;
11090;SDS011;5599;52.210;21.046;2022-09-09T13:23:30;32.43;;;24.63;;
11090;SDS011;5599;52.210;21.046;2022-09-09T13:26:03;30.70;;;23.80;;
11090;SDS011;5599;52.210;21.046;2022-09-09T13:28:35;30.50;;;23.57;;
11090;SDS011;5599;52.210;21.046;2022-09-09T13:31:05;31.83;;;24.00;;
11090;SDS011;5599;52.210;21.046;2022-09-09T13:33:51;30.50;;;24.07;;
11090;SDS011;5599;52.210;21.046;2022-09-09T13:36:29;32.70;;;23.80;;
11090;SDS011;5599;52.210;21.046;2022-09-09T13:39:01;33.63;;;24.67;;
11090;SDS011;5599;52.210;21.046;2022-09-09T13:41:32;33.73;;;25.70;;
11090;SDS011;5599;52.210;21.046;2022-09-09T13:44:04;30.50;;;23.53;;
11090;SDS011;5599;52.210;21.046;2022-09-09T13:46:35;27.13;;;21.37;;
11090;SDS011;5599;52.210;21.046;2022-09-09T13:49:18;26.00;;;21.23;;
11090;SDS011;5599;52.210;21.046;2022-09-09T13:51:51;27.23;;;20.60;;
11090;SDS011;5599;52.210;21.046;2022-09-09T13:54:34;30.23;;;21.00;;
11090;SDS011;5599;52.210;21.046;2022-09-09T13:57:04;26.47;;;20.17;;
11090;SDS011;5599;52.210;21.046;2022-09-09T13:59:35;30.07;;;22.03;;
11090;SDS011;5599;52.210;21.046;2022-09-09T14:02:24;28.63;;;22.10;;
11090;SDS011;5599;52.210;21.046;2022-09-09T14:04:54;32.10;;;25.40;;
11090;SDS011;5599;52.210;21.046;2022-09-09T14:07:25;28.90;;;23.07;;
11090;SDS011;5599;52.210;21.046;2022-09-09T14:09:56;30.10;;;22.20;;
11090;SDS011;5599;52.210;21.046;2022-09-09T14:12:27;30.53;;;23.30;;
11090;SDS011;5599;52.210;21.046;2022-09-09T14:14:57;27.80;;;20.40;;
11090;SDS011;5599;52.210;21.046;2022-09-09T14:17:27;27.00;;;20.33;;
11090;SDS011;5599;52.210;21.046;2022-09-09T14:19:58;29.87;;;21.27;;
11090;SDS011;5599;52.210;21.046;2022-09-09T14:22:29;30.27;;;21.83;;
11090;SDS011;5599;52.210;21.046;2022-09-09T14:24:59;33.83;;;22.10;;
11090;SDS011;5599;52.210;21.046;2022-09-09T14:27:29;33.40;;;22.83;;
11090;SDS011;5599;52.210;21.046;2022-09-09T14:29:58;35.30;;;23.10;;
11090;SDS011;5599;52.210;21.046;2022-09-09T14:32:28;31.23;;;22.07;;
11090;SDS011;5599;52.210;21.046;2022-09-09T14:34:58;31.17;;;22.73;;
11090;SDS011;5599;52.210;21.046;2022-09-09T14:37:30;31.33;;;22.43;;
11090;SDS011;5599;52.210;21.046;2022-09-09T14:40:00;34.23;;;21.83;;
11090;SDS011;5599;52.210;21.046;2022-09-09T14:42:30;34.77;;;22.90;;
11090;SDS011;5599;52.210;21.046;2022-09-09T14:45:00;33.27;;;22.97;;
11090;SDS011;5599;52.210;21.046;2022-09-09T14:47:30;30.83;;;22.27;;
11090;SDS011;5599;52.210;21.046;2022-09-09T14:50:00;30.53;;;22.47;;
11090;SDS011;5599;52.210;21.046;2022-09-09T14:52:33;34.27;;;25.33;;
11090;SDS011;5599;52.210;21.046;2022-09-09T14:55:03;32.00;;;23.93;;
11090;SDS011;5599;52.210;21.046;2022-09-09T14:57:33;32.80;;;23.97;;
11090;SDS011;5599;52.210;21.046;2022-09-09T15:00:03;30.50;;;23.83;;
11090;SDS011;5599;52.210;21.046;2022-09-09T15:02:34;30.63;;;22.43;;
11090;SDS011;5599;52.210;21.046;2022-09-09T15:05:04;29.73;;;23.57;;
11090;SDS011;5599;52.210;21.046;2022-09-09T15:07:37;30.47;;;22.33;;
11090;SDS011;5599;52.210;21.046;2022-09-09T15:10:07;34.17;;;24.73;;
11090;SDS011;5599;52.210;21.046;2022-09-09T15:12:38;30.67;;;22.23;;
11090;SDS011;5599;52.210;21.046;2022-09-09T15:15:09;28.90;;;23.37;;
11090;SDS011;5599;52.210;21.046;2022-09-09T15:17:39;27.40;;;22.83;;
11090;SDS011;5599;52.210;21.046;2022-09-09T15:20:09;36.90;;;27.27;;
11090;SDS011;5599;52.210;21.046;2022-09-09T15:22:42;31.77;;;24.37;;
11090;SDS011;5599;52.210;21.046;2022-09-09T15:25:12;28.40;;;21.57;;
11090;SDS011;5599;52.210;21.046;2022-09-09T15:27:42;29.77;;;22.93;;